Time;durP1;ratioP1;P1;durP2;ratioP2;P2;SDS_P1;SDS_P2;PMS_P1;PMS_P2;Temp;Humidity;BMP_temperature;BMP_pressure;BME280_temperature;BME280_humidity;BME280_pressure;Samples;Min_cycle;Max_cycle;Signal;HPM_P1;HPM_P2
2022/11/10 00:00:47;;;;;;;41.20;22.90;;;;;;;8.05;86.75;100137.94;125226;1299;98794;-80
2022/11/10 00:04:11;;;;;;;38.60;22.00;;;;;;;8.07;86.85;100142.04;125281;1296;98684;-80
2022/11/10 00:07:36;;;;;;;38.10;24.00;;;;;;;8.11;86.73;100145.26;125224;1303;98782;-81
2022/11/10 00:11:05;;;;;;;42.10;23.70;;;;;;;8.16;86.72;100144.64;125138;1309;98098;-79
2022/11/10 00:18:11;;;;;;;44.50;25.70;;;;;;;8.19;86.63;100143.45;125353;1296;98553;-80
2022/11/10 00:21:36;;;;;;;40.50;24.40;;;;;;;8.15;86.66;100147.89;125475;1295;99301;-82
2022/11/10 00:25:00;;;;;;;36.40;21.10;;;;;;;8.12;86.85;100141.31;125628;1306;98042;-80
2022/11/10 00:28:25;;;;;;;40.60;22.60;;;;;;;8.12;86.92;100145.15;125080;1297;98127;-82
2022/11/10 00:31:50;;;;;;;42.10;24.30;;;;;;;8.15;86.89;100142.02;125342;1297;98075;-83
2022/11/10 00:35:14;;;;;;;45.10;27.60;;;;;;;8.20;87.03;100145.77;125150;1305;98043;-83
2022/11/10 00:38:38;;;;;;;41.30;25.70;;;;;;;8.26;87.04;100144.75;125181;1297;99280;-83
2022/11/10 00:42:03;;;;;;;42.70;24.80;;;;;;;8.30;87.02;100145.54;125175;1298;99279;-83
2022/11/10 00:45:27;;;;;;;39.50;23.90;;;;;;;8.29;87.07;100150.64;125117;1296;98110;-82
2022/11/10 00:48:51;;;;;;;39.10;20.80;;;;;;;8.30;87.12;100147.41;125327;1307;98015;-82
2022/11/10 00:52:15;;;;;;;34.90;20.00;;;;;;;8.31;87.14;100149.84;125230;1303;98032;-82
2022/11/10 00:55:41;;;;;;;33.40;19.20;;;;;;;8.34;87.17;100150.66;125292;1296;98074;-82
2022/11/10 00:59:05;;;;;;;39.00;22.20;;;;;;;8.40;87.11;100153.42;125306;1297;98096;-80
2022/11/10 01:02:30;;;;;;;36.80;21.80;;;;;;;8.44;87.14;100146.90;125091;1306;99191;-80
2022/11/10 01:05:55;;;;;;;33.70;20.90;;;;;;;8.47;87.16;100150.64;125262;1289;98693;-82
2022/11/10 01:09:19;;;;;;;28.40;17.00;;;;;;;8.49;87.04;100156.85;125295;1303;98043;-82
2022/11/10 01:12:43;;;;;;;30.50;18.20;;;;;;;8.48;87.06;100153.11;125311;1297;99132;-81
2022/11/10 01:16:10;;;;;;;24.90;14.00;;;;;;;8.48;87.18;100149.52;125249;1305;98016;-81
2022/11/10 01:19:34;;;;;;;34.90;21.10;;;;;;;8.51;87.29;100149.05;125152;1299;98011;-82
2022/11/10 01:22:58;;;;;;;38.00;22.00;;;;;;;8.56;87.18;100150.38;125304;1289;98012;-82
2022/11/10 01:26:23;;;;;;;35.40;20.90;;;;;;;8.60;87.21;100154.95;125291;1298;98523;-83
2022/11/10 01:29:48;;;;;;;35.50;22.00;;;;;;;8.63;87.23;100158.05;125172;1297;98076;-82
2022/11/10 01:33:12;;;;;;;39.30;22.60;;;;;;;8.66;87.36;100154.79;125440;1313;97945;-82
2022/11/10 01:36:36;;;;;;;35.50;19.70;;;;;;;8.66;87.38;100158.15;125310;1305;98036;-82
2022/11/10 01:40:01;;;;;;;35.00;19.30;;;;;;;8.66;87.44;100165.25;125089;1299;98036;-83
2022/11/10 01:43:26;;;;;;;38.40;21.80;;;;;;;8.68;87.34;100160.45;125533;1313;99235;-83
2022/11/10 01:46:50;;;;;;;36.30;21.50;;;;;;;8.73;87.35;100157.87;125480;1304;99068;-82
2022/11/10 01:50:14;;;;;;;39.60;22.30;;;;;;;8.80;87.42;100159.01;125242;1304;98794;-82
2022/11/10 01:53:44;;;;;;;36.10;22.10;;;;;;;8.83;87.51;100158.49;125158;1297;99090;-82
2022/11/10 01:57:10;;;;;;;34.60;21.80;;;;;;;8.86;87.45;100157.67;125655;1302;98105;-82
2022/11/10 02:00:35;;;;;;;33.60;17.10;;;;;;;8.87;87.47;100158.65;125570;1306;99202;-82
2022/11/10 02:04:02;;;;;;;32.60;18.60;;;;;;;8.88;87.59;100165.98;125553;1306;98150;-82
2022/11/10 02:07:27;;;;;;;35.40;20.60;;;;;;;8.94;87.66;100169.18;125238;1311;98802;-80
2022/11/10 02:10:51;;;;;;;34.50;21.10;;;;;;;9.00;87.51;100171.07;125272;1305;99221;-80
2022/11/10 02:14:16;;;;;;;34.70;21.10;;;;;;;9.05;87.59;100175.90;125239;1299;98061;-81
2022/11/10 02:17:41;;;;;;;33.00;21.00;;;;;;;9.10;87.41;100177.99;125240;1305;99185;-81
2022/11/10 02:21:07;;;;;;;36.30;20.90;;;;;;;9.12;87.20;100178.89;125190;1305;98007;-81
2022/11/10 02:24:32;;;;;;;33.60;18.80;;;;;;;9.11;87.43;100178.38;124978;1306;98047;-82
2022/11/10 02:27:56;;;;;;;27.90;14.40;;;;;;;9.10;87.57;100180.98;125007;1299;99086;-80
2022/11/10 02:31:20;;;;;;;31.00;19.30;;;;;;;9.13;87.36;100179.33;125017;1299;98044;-81
2022/11/10 02:34:45;;;;;;;34.90;20.60;;;;;;;9.15;87.40;100181.73;125215;1298;98011;-81
2022/11/10 02:38:09;;;;;;;32.40;19.90;;;;;;;9.18;87.67;100183.17;125010;1306;98146;-81
2022/11/10 02:41:33;;;;;;;37.30;21.40;;;;;;;9.21;87.28;100188.80;125056;1296;99195;-80
2022/11/10 02:44:57;;;;;;;31.90;19.80;;;;;;;9.22;87.36;100199.52;124820;1299;258501;-80
2022/11/10 02:48:22;;;;;;;33.50;18.90;;;;;;;9.20;87.36;100201.36;125020;1299;98084;-81
2022/11/10 02:51:46;;;;;;;31.30;17.50;;;;;;;9.18;87.49;100201.32;125359;1296;98025;-82
2022/11/10 02:55:11;;;;;;;35.50;20.60;;;;;;;9.18;87.64;100196.76;125194;1306;98332;-82
2022/11/10 02:58:35;;;;;;;34.30;20.40;;;;;;;9.21;87.39;100202.27;125316;1305;98840;-85
2022/11/10 03:01:59;;;;;;;33.20;21.30;;;;;;;9.24;87.49;100204.12;125249;1299;98860;-84
2022/11/10 03:05:23;;;;;;;33.40;20.00;;;;;;;9.26;87.40;100212.31;125431;1310;98139;-83
2022/11/10 03:08:48;;;;;;;33.80;21.20;;;;;;;9.25;87.48;100214.33;125331;1296;99119;-80
2022/11/10 03:12:12;;;;;;;30.30;18.30;;;;;;;9.22;87.47;100217.96;125241;1299;98803;-80
2022/11/10 03:15:36;;;;;;;31.40;16.70;;;;;;;9.22;87.57;100225.29;125163;1298;99061;-81
2022/11/10 03:19:00;;;;;;;32.70;19.50;;;;;;;9.21;87.53;100221.98;125309;1292;99317;-81
2022/11/10 03:22:25;;;;;;;33.40;19.60;;;;;;;9.23;87.92;100223.71;125319;1306;98075;-81
2022/11/10 03:25:49;;;;;;;32.50;19.80;;;;;;;9.25;87.63;100222.67;125281;1299;98976;-82
2022/11/10 03:29:13;;;;;;;35.60;20.90;;;;;;;9.24;87.66;100227.21;125372;1298;98173;-82
2022/11/10 03:32:37;;;;;;;32.10;20.10;;;;;;;9.23;87.68;100232.75;125452;1298;98042;-79
2022/11/10 03:36:02;;;;;;;28.70;16.70;;;;;;;9.23;87.66;100240.24;125178;1296;98677;-79
2022/11/10 03:39:26;;;;;;;26.60;16.20;;;;;;;9.22;87.63;100238.56;125116;1296;99286;-81
2022/11/10 03:42:50;;;;;;;32.30;19.90;;;;;;;9.26;87.92;100242.09;125126;1299;98104;-78
2022/11/10 03:46:15;;;;;;;33.70;19.60;;;;;;;9.31;87.97;100236.48;124963;1289;98675;-78
2022/11/10 03:49:39;;;;;;;35.20;21.10;;;;;;;9.35;87.99;100237.88;124925;1309;98032;-82
2022/11/10 03:53:03;;;;;;;32.60;20.50;;;;;;;9.37;87.97;100244.77;125592;1299;98251;-80
2022/11/10 03:56:27;;;;;;;32.90;17.90;;;;;;;9.36;88.12;100254.27;127106;1305;98128;-81
2022/11/10 03:59:52;;;;;;;28.10;16.70;;;;;;;9.35;88.05;100258.14;125294;1297;98046;-83
2022/11/10 04:03:16;;;;;;;32.80;19.50;;;;;;;9.36;88.01;100250.54;125359;1295;98131;-83
2022/11/10 04:10:22;;;;;;;33.10;20.60;;;;;;;9.43;88.29;100253.13;125042;1292;98783;-82
2022/11/10 04:17:30;;;;;;;32.20;20.50;;;;;;;9.42;88.36;100258.27;125106;1295;99317;-82
2022/11/10 04:20:55;;;;;;;34.20;17.90;;;;;;;9.40;88.77;100265.27;125106;1313;99203;-82
2022/11/10 04:24:20;;;;;;;204.40;76.60;;;;;;;9.37;88.74;100268.90;125303;1292;99217;-82
2022/11/10 04:27:44;;;;;;;148.30;74.10;;;;;;;9.37;88.64;100271.05;125352;1295;98273;-83
2022/11/10 04:31:09;;;;;;;56.90;29.70;;;;;;;9.42;88.95;100274.71;125267;1304;98458;-83
2022/11/10 04:34:33;;;;;;;42.00;23.80;;;;;;;9.44;89.14;100276.58;125165;1302;98077;-82
2022/11/10 04:37:57;;;;;;;38.40;22.40;;;;;;;9.46;88.79;100278.64;125126;1302;98077;-82
2022/11/10 04:41:22;;;;;;;87.20;41.10;;;;;;;9.44;89.09;100279.61;125164;1312;98792;-82
2022/11/10 04:44:47;;;;;;;33.90;18.90;;;;;;;9.45;88.86;100282.92;125125;1299;98450;-82
2022/11/10 04:48:11;;;;;;;30.70;19.10;;;;;;;9.48;89.18;100283.58;125379;1305;99104;-82
2022/11/10 04:51:37;;;;;;;30.40;19.10;;;;;;;9.52;89.12;100286.23;125372;1306;98015;-82
2022/11/10 04:55:02;;;;;;;33.20;20.50;;;;;;;9.56;88.97;100284.59;125176;1296;98797;-82
2022/11/10 04:58:26;;;;;;;38.70;22.00;;;;;;;9.57;89.28;100282.15;125160;1302;98025;-82
2022/11/10 05:01:50;;;;;;;30.10;17.50;;;;;;;9.55;89.29;100287.86;125105;1306;98783;-81
2022/11/10 05:05:14;;;;;;;31.60;15.80;;;;;;;9.54;89.50;100290.80;125039;1297;99182;-81
2022/11/10 05:08:39;;;;;;;32.80;19.00;;;;;;;9.56;89.15;100291.86;125019;1305;98143;-82
2022/11/10 05:12:04;;;;;;;35.50;20.20;;;;;;;9.59;89.36;100295.33;125195;1304;98001;-82
2022/11/10 05:15:28;;;;;;;39.70;21.90;;;;;;;9.60;89.31;100298.90;125157;1296;98776;-83
2022/11/10 05:18:54;;;;;;;47.90;25.80;;;;;;;9.60;89.22;100305.44;125159;1313;98885;-83
2022/11/10 05:22:19;;;;;;;31.50;17.40;;;;;;;9.57;89.50;100305.26;125016;1306;98015;-82
2022/11/10 05:25:44;;;;;;;30.90;16.20;;;;;;;9.56;89.48;100309.27;125112;1305;98788;-82
2022/11/10 05:29:08;;;;;;;29.00;17.20;;;;;;;9.57;89.24;100306.69;125115;1306;98012;-83
2022/11/10 05:32:32;;;;;;;29.10;18.00;;;;;;;9.59;89.32;100316.45;125255;1297;99212;-83
2022/11/10 05:35:57;;;;;;;35.30;19.80;;;;;;;9.59;89.47;100319.98;125273;1296;98035;-82
2022/11/10 05:39:21;;;;;;;79.20;33.30;;;;;;;9.60;89.35;100326.58;125071;1306;97972;-83
2022/11/10 05:42:47;;;;;;;41.80;20.60;;;;;;;9.57;89.67;100329.01;125010;1312;98438;-83
2022/11/10 05:46:11;;;;;;;29.20;15.70;;;;;;;9.56;89.67;100332.11;125224;1306;98032;-83
2022/11/10 05:49:35;;;;;;;31.70;18.80;;;;;;;9.57;89.99;100340.73;125243;1297;99164;-83
2022/11/10 05:52:59;;;;;;;29.50;16.70;;;;;;;9.59;89.70;100340.36;125576;1297;98637;-83
2022/11/10 05:56:23;;;;;;;34.60;20.00;;;;;;;9.60;90.02;100353.55;125102;1298;98039;-83
2022/11/10 05:59:54;;;;;;;31.50;18.20;;;;;;;9.61;89.91;100364.20;125239;1313;98690;-84
2022/11/10 06:03:20;;;;;;;29.90;18.20;;;;;;;9.61;89.92;100371.31;125122;1299;98788;-83
2022/11/10 06:06:44;;;;;;;27.50;15.70;;;;;;;9.60;89.90;100375.47;124988;1302;98340;-81
2022/11/10 06:10:09;;;;;;;36.70;20.20;;;;;;;9.60;89.94;100375.80;125291;1299;98114;-82
2022/11/10 06:13:34;;;;;;;31.20;18.90;;;;;;;9.63;89.97;100378.20;125148;1305;98797;-83
2022/11/10 06:16:58;;;;;;;36.40;23.40;;;;;;;9.64;90.01;100391.95;125236;1306;99119;-83
2022/11/10 06:20:22;;;;;;;37.10;23.40;;;;;;;9.66;90.15;100397.14;125366;1308;98009;-83
2022/11/10 06:23:47;;;;;;;27.90;16.50;;;;;;;9.66;90.04;100399.61;125316;1297;98020;-83
2022/11/10 06:27:11;;;;;;;30.50;17.60;;;;;;;9.66;90.41;100411.89;125130;1302;99176;-83
2022/11/10 06:30:37;;;;;;;48.10;30.40;;;;;;;9.67;90.36;100411.98;125236;1297;99118;-82
2022/11/10 06:34:02;;;;;;;41.30;26.50;;;;;;;9.69;90.13;100422.37;125263;1310;99148;-81
2022/11/10 06:37:26;;;;;;;60.90;35.40;;;;;;;9.72;90.17;100426.59;125109;1299;99111;-82
2022/11/10 06:40:50;;;;;;;40.30;24.50;;;;;;;9.73;90.49;100426.95;125276;1306;98223;-82
2022/11/10 06:44:14;;;;;;;31.80;19.40;;;;;;;9.73;90.24;100427.74;125075;1306;98788;-81
2022/11/10 06:47:39;;;;;;;28.40;15.90;;;;;;;9.73;90.24;100422.89;125153;1297;98476;-82
2022/11/10 06:51:03;;;;;;;35.80;18.50;;;;;;;9.77;90.59;100428.23;125365;1297;98036;-82
2022/11/10 06:54:27;;;;;;;31.20;19.50;;;;;;;9.80;90.42;100434.33;125083;1304;98033;-83
2022/11/10 06:57:51;;;;;;;31.50;19.60;;;;;;;9.85;90.53;100436.69;125091;1306;98370;-82
2022/11/10 07:01:16;;;;;;;66.80;41.90;;;;;;;9.89;90.47;100435.86;125121;1302;99214;-82
2022/11/10 07:04:41;;;;;;;44.30;26.50;;;;;;;9.89;90.72;100451.27;125299;1306;99058;-82
2022/11/10 07:08:07;;;;;;;101.70;42.20;;;;;;;9.90;90.87;100452.14;125087;1302;98007;-81
2022/11/10 07:11:31;;;;;;;45.80;26.40;;;;;;;9.92;91.03;100456.16;125037;1306;98733;-82
2022/11/10 07:14:55;;;;;;;31.40;19.40;;;;;;;9.96;90.86;100454.34;125130;1302;98120;-82
2022/11/10 07:18:19;;;;;;;29.60;18.60;;;;;;;10.00;90.82;100464.98;125183;1306;98009;-81
2022/11/10 07:21:43;;;;;;;32.80;20.70;;;;;;;10.03;90.85;100471.14;125260;1296;99166;-83
2022/11/10 07:25:10;;;;;;;30.00;16.90;;;;;;;10.03;91.03;100473.91;125154;1302;98035;-81
2022/11/10 07:28:34;;;;;;;25.50;15.10;;;;;;;10.04;90.86;100475.95;125064;1304;98023;-80
2022/11/10 07:31:58;;;;;;;27.80;17.10;;;;;;;10.07;91.11;100480.30;125134;1303;99165;-81
2022/11/10 07:35:22;;;;;;;30.10;19.10;;;;;;;10.13;91.16;100479.57;125237;1303;98013;-82
2022/11/10 07:38:47;;;;;;;28.40;18.90;;;;;;;10.19;91.28;100487.18;125146;1297;99049;-82
2022/11/10 07:42:11;;;;;;;26.60;16.40;;;;;;;10.21;91.22;100490.34;125192;1303;99083;-81
2022/11/10 07:45:35;;;;;;;25.70;15.60;;;;;;;10.21;91.31;100491.99;125167;1297;99078;-81
2022/11/10 07:48:59;;;;;;;24.60;14.90;;;;;;;10.22;91.29;100497.21;125234;1297;99167;-81
2022/11/10 07:52:23;;;;;;;26.60;15.60;;;;;;;10.26;91.52;100502.01;125151;1309;99058;-82
2022/11/10 07:55:48;;;;;;;32.60;19.70;;;;;;;10.33;91.30;100503.30;125250;1297;99163;-81
2022/11/10 07:59:12;;;;;;;27.90;18.10;;;;;;;10.41;91.32;100512.52;125317;1289;98075;-81
2022/11/10 08:02:36;;;;;;;26.40;16.80;;;;;;;10.46;91.29;100522.95;125300;1309;99195;-82
2022/11/10 08:06:00;;;;;;;22.90;14.10;;;;;;;10.46;91.31;100517.64;125271;1312;98332;-81
2022/11/10 08:09:25;;;;;;;20.40;11.90;;;;;;;10.48;91.74;100523.08;125238;1303;98041;-82
2022/11/10 08:12:55;;;;;;;25.50;16.00;;;;;;;10.54;91.63;100524.42;125295;1300;98023;-81
2022/11/10 08:16:20;;;;;;;22.90;13.80;;;;;;;10.66;91.98;100525.14;125520;1289;98060;-81
2022/11/10 08:19:44;;;;;;;21.20;14.10;;;;;;;10.77;91.81;100530.09;125460;1297;98039;-81
2022/11/10 08:23:08;;;;;;;22.90;14.30;;;;;;;10.85;91.58;100534.10;125343;1296;99084;-81
2022/11/10 08:26:33;;;;;;;19.80;12.10;;;;;;;10.92;91.98;100544.16;125260;1298;98119;-82
2022/11/10 08:29:57;;;;;;;20.50;12.20;;;;;;;10.99;91.99;100549.34;125330;1296;98068;-83
2022/11/10 08:33:22;;;;;;;19.90;12.40;;;;;;;11.08;91.72;100553.86;125528;1293;98136;-82
2022/11/10 08:36:47;;;;;;;20.40;13.50;;;;;;;11.17;91.71;100556.50;125195;1297;99192;-81
2022/11/10 08:40:14;;;;;;;20.70;13.50;;;;;;;11.25;91.63;100555.88;125290;1302;98100;-81
2022/11/10 08:43:38;;;;;;;21.60;13.70;;;;;;;11.30;91.55;100563.83;125321;1297;98083;-81
2022/11/10 08:47:02;;;;;;;20.10;12.90;;;;;;;11.31;91.56;100565.34;125353;1297;98040;-81
2022/11/10 08:50:28;;;;;;;19.80;12.50;;;;;;;11.27;91.56;100569.26;125500;1293;98807;-81
2022/11/10 08:53:52;;;;;;;16.90;11.80;;;;;;;11.25;91.59;100577.70;125479;1304;98016;-81
2022/11/10 08:57:16;;;;;;;22.60;14.00;;;;;;;11.25;91.79;100586.55;125451;1302;99055;-81
2022/11/10 09:00:40;;;;;;;20.10;13.80;;;;;;;11.26;91.73;100594.66;125376;1298;98004;-81
2022/11/10 09:04:04;;;;;;;21.30;14.00;;;;;;;11.27;91.68;100602.55;125487;1302;99135;-81
2022/11/10 09:07:28;;;;;;;20.20;12.80;;;;;;;11.29;91.92;100598.59;125222;1302;98888;-81
2022/11/10 09:10:53;;;;;;;20.40;12.40;;;;;;;11.30;92.01;100606.20;125282;1297;98091;-81
2022/11/10 09:14:17;;;;;;;22.20;13.00;;;;;;;11.37;92.05;100606.94;125201;1303;98034;-82
2022/11/10 09:17:42;;;;;;;21.50;14.00;;;;;;;11.49;92.18;100607.78;125240;1300;98781;-81
2022/11/10 09:21:10;;;;;;;18.10;12.80;;;;;;;11.57;92.10;100607.98;125285;1302;99195;-81
2022/11/10 09:24:34;;;;;;;18.20;12.70;;;;;;;11.66;92.04;100609.46;125270;1302;98100;-81
2022/11/10 09:27:59;;;;;;;18.80;12.40;;;;;;;11.75;92.05;100614.58;125315;1304;99211;-81
2022/11/10 09:31:23;;;;;;;20.90;13.70;;;;;;;11.88;91.99;100623.00;125251;1302;99193;-82
2022/11/10 09:34:47;;;;;;;21.50;14.10;;;;;;;12.00;91.92;100628.71;125280;1296;98109;-81
2022/11/10 09:38:11;;;;;;;24.30;15.80;;;;;;;12.11;91.76;100631.71;125204;1295;98450;-81
2022/11/10 09:41:40;;;;;;;19.70;14.10;;;;;;;12.16;91.72;100635.83;125277;1296;98034;-81
2022/11/10 09:45:16;;;;;;;19.00;12.50;;;;;;;12.18;91.66;100640.86;125330;1303;98770;-83
2022/11/10 09:48:48;;;;;;;17.00;11.60;;;;;;;12.20;91.70;100642.13;125143;1302;99059;-82
2022/11/10 09:52:14;;;;;;;17.20;11.70;;;;;;;12.29;91.77;100642.27;125339;1299;98798;-82
2022/11/10 09:55:45;;;;;;;17.20;11.30;;;;;;;12.43;91.65;100637.48;125226;1302;98821;-82
2022/11/10 09:59:22;;;;;;;14.10;10.80;;;;;;;12.52;91.44;100643.71;125399;1304;98104;-80
2022/11/10 10:02:53;;;;;;;14.80;10.60;;;;;;;12.61;91.24;100646.29;125180;1302;98008;-80
2022/11/10 10:06:20;;;;;;;14.60;10.00;;;;;;;12.69;91.23;100648.62;125298;1305;98032;-80
2022/11/10 10:09:54;;;;;;;14.30;9.50;;;;;;;12.76;90.85;100650.11;125127;1300;98070;-80
2022/11/10 10:14:03;;;;;;;11.90;8.50;;;;;;;12.75;90.82;100654.69;125163;1304;98797;-80
2022/11/10 10:17:32;;;;;;;15.60;9.70;;;;;;;12.85;90.72;100660.98;125137;1300;98798;-83
2022/11/10 10:21:15;;;;;;;13.80;9.70;;;;;;;12.82;90.59;100666.65;125243;1312;98085;-82
2022/11/10 10:24:40;;;;;;;13.70;9.20;;;;;;;12.81;90.65;100669.64;125179;1313;98124;-80
2022/11/10 10:28:12;;;;;;;12.90;8.30;;;;;;;12.81;90.62;100674.14;125200;1296;98658;-80
2022/11/10 10:31:40;;;;;;;11.90;8.30;;;;;;;12.79;90.40;100674.16;125203;1296;98775;-82
2022/11/10 10:35:04;;;;;;;11.30;8.20;;;;;;;12.79;89.39;100679.18;125328;1293;98214;-82
2022/11/10 10:38:33;;;;;;;10.60;7.10;;;;;;;12.72;88.86;100682.14;125304;1300;98129;-81
2022/11/10 10:41:58;;;;;;;13.10;7.70;;;;;;;12.60;89.18;100679.77;125181;1301;98203;-81
2022/11/10 10:45:25;;;;;;;11.60;7.20;;;;;;;12.54;89.00;100680.23;125092;1296;98037;-80
2022/11/10 10:49:05;;;;;;;12.60;7.20;;;;;;;12.53;89.37;100686.35;125227;1310;99209;-80
2022/11/10 10:52:30;;;;;;;14.00;7.70;;;;;;;12.51;88.91;100691.90;125201;1297;98013;-80
2022/11/10 10:56:00;;;;;;;11.70;7.30;;;;;;;12.53;89.23;100691.41;125058;1298;98098;-81
2022/11/10 10:59:25;;;;;;;10.60;6.80;;;;;;;12.51;88.59;100693.33;125126;1304;98062;-81
2022/11/10 11:03:02;;;;;;;10.70;6.70;;;;;;;12.55;88.84;100689.25;125294;1302;98095;-81
2022/11/10 11:06:28;;;;;;;11.50;7.30;;;;;;;12.55;88.82;100688.14;125165;1309;98796;-81
2022/11/10 11:09:52;;;;;;;11.70;7.20;;;;;;;12.52;88.88;100690.92;125269;1296;99172;-81
2022/11/10 11:13:27;;;;;;;10.30;7.20;;;;;;;12.56;88.81;100690.36;125260;1302;99221;-81
2022/11/10 11:16:53;;;;;;;11.00;6.90;;;;;;;12.61;88.94;100699.00;125180;1298;98441;-81
2022/11/10 11:20:18;;;;;;;13.70;8.10;;;;;;;12.68;88.89;100703.50;125162;1297;99163;-81
2022/11/10 11:24:06;;;;;;;12.30;8.10;;;;;;;12.73;88.77;100706.02;125250;1292;98029;-81
2022/11/10 11:27:38;;;;;;;10.70;8.00;;;;;;;12.71;88.25;100707.58;125451;1309;98104;-81
2022/11/10 11:31:10;;;;;;;11.40;7.30;;;;;;;12.70;88.42;100707.90;125275;1298;98103;-81
2022/11/10 11:34:43;;;;;;;12.60;7.70;;;;;;;12.71;88.58;100708.30;125263;1302;98091;-81
2022/11/10 11:38:15;;;;;;;12.40;7.70;;;;;;;12.73;88.46;100709.20;125072;1296;98149;-81
2022/11/10 11:41:46;;;;;;;13.10;8.20;;;;;;;12.74;88.61;100713.15;125123;1302;98811;-81
2022/11/10 11:45:20;;;;;;;15.50;8.20;;;;;;;12.78;88.12;100714.41;125272;1301;98012;-80
2022/11/10 11:48:51;;;;;;;13.10;8.80;;;;;;;12.80;88.33;100720.16;125155;1297;98098;-80
2022/11/10 11:52:25;;;;;;;11.40;8.60;;;;;;;12.82;88.19;100715.42;125151;1296;98020;-79
2022/11/10 11:56:04;;;;;;;10.90;7.20;;;;;;;12.84;88.12;100715.91;125030;1297;98711;-80
2022/11/10 11:59:47;;;;;;;12.80;8.30;;;;;;;12.81;87.44;100718.90;125116;1293;98058;-80
2022/11/10 12:03:36;;;;;;;11.10;7.70;;;;;;;12.78;87.96;100724.05;125097;1296;99061;-80
2022/11/10 12:07:13;;;;;;;11.40;8.80;;;;;;;12.88;87.85;100726.70;125346;1295;99103;-80
2022/11/10 12:10:50;;;;;;;13.00;9.40;;;;;;;12.91;87.24;100727.01;125331;1293;98592;-80
2022/11/10 12:14:24;;;;;;;21.60;16.60;;;;;;;12.94;87.47;100728.15;125237;1295;99111;-80
2022/11/10 12:17:55;;;;;;;22.80;17.90;;;;;;;12.92;87.43;100730.59;125116;1289;99060;-80
2022/11/10 12:21:43;;;;;;;13.10;9.20;;;;;;;12.92;87.24;100727.48;124881;1292;98358;-80
2022/11/10 12:25:19;;;;;;;15.00;10.40;;;;;;;12.94;87.35;100729.40;124916;1312;99110;-80
2022/11/10 12:28:48;;;;;;;11.40;8.00;;;;;;;12.98;86.37;100736.66;124984;1298;98137;-80
2022/11/10 12:32:20;;;;;;;13.60;9.60;;;;;;;12.91;86.34;100749.89;125197;1297;98149;-80
2022/11/10 12:35:46;;;;;;;10.90;8.10;;;;;;;12.88;86.44;100756.58;125198;1299;98355;-80
2022/11/10 12:39:20;;;;;;;15.70;10.10;;;;;;;12.88;86.87;100757.84;125089;1305;99157;-80
2022/11/10 12:42:46;;;;;;;23.60;14.20;;;;;;;12.91;86.93;100764.27;124912;1305;98101;-80
2022/11/10 12:46:13;;;;;;;23.70;13.50;;;;;;;12.90;86.49;100772.29;125096;1297;98147;-80
2022/11/10 12:49:41;;;;;;;13.40;8.30;;;;;;;12.83;86.37;100778.90;124938;1312;99093;-80
2022/11/10 12:53:11;;;;;;;29.60;16.40;;;;;;;12.75;85.94;100778.73;125026;1305;99157;-80
2022/11/10 12:56:42;;;;;;;20.30;11.50;;;;;;;12.80;86.76;100783.46;125194;1292;99211;-80
2022/11/10 13:00:22;;;;;;;25.30;15.40;;;;;;;12.86;86.45;100790.38;125207;1289;98026;-80
2022/11/10 13:03:57;;;;;;;16.60;10.70;;;;;;;12.83;86.40;100788.67;125187;1296;98331;-80
2022/11/10 13:07:25;;;;;;;21.40;13.10;;;;;;;12.82;86.35;100790.94;124917;1306;98041;-80
2022/11/10 13:10:56;;;;;;;17.00;9.50;;;;;;;12.77;86.19;100795.70;124971;1305;98709;-78
2022/11/10 13:14:25;;;;;;;13.80;8.70;;;;;;;12.73;86.41;100798.62;124969;1306;99086;-81
2022/11/10 13:17:56;;;;;;;18.00;12.00;;;;;;;12.75;86.41;100798.61;124919;1301;99199;-81
2022/11/10 13:21:58;;;;;;;19.20;13.70;;;;;;;12.80;86.40;100804.72;124975;1297;99056;-81
2022/11/10 13:25:38;;;;;;;;;;;;;;;12.78;86.11;100809.17;125139;1296;98034;-80
2022/11/10 13:29:28;;;;;;;31.10;14.30;;;;;;;12.77;86.32;100815.50;125058;1305;99192;-80
2022/11/10 13:32:52;;;;;;;14.40;10.90;;;;;;;12.70;85.89;100821.37;124941;1306;99095;-80
2022/11/10 13:36:40;;;;;;;18.60;9.90;;;;;;;12.58;86.22;100824.55;124992;1302;99349;-80
2022/11/10 13:40:28;;;;;;;11.40;8.20;;;;;;;12.55;86.60;100827.54;125115;1299;97998;-80
2022/11/10 13:43:54;;;;;;;13.50;8.70;;;;;;;12.60;86.45;100830.46;124994;1295;98177;-79
2022/11/10 13:47:40;;;;;;;11.40;8.50;;;;;;;12.65;86.52;100834.56;125084;1296;98026;-80
2022/11/10 13:51:16;;;;;;;14.10;8.20;;;;;;;12.67;86.34;100832.30;125061;1297;99130;-80
2022/11/10 13:54:58;;;;;;;14.00;8.50;;;;;;;12.58;86.16;100838.48;125195;1296;98014;-79
2022/11/10 13:58:28;;;;;;;11.10;8.30;;;;;;;12.46;86.14;100846.58;125042;1298;98228;-79
2022/11/10 14:01:52;;;;;;;12.90;7.90;;;;;;;12.31;86.04;100850.60;125061;1296;98105;-79
2022/11/10 14:06:00;;;;;;;12.30;7.00;;;;;;;12.22;86.14;100850.45;125005;1306;99063;-80
2022/11/10 14:09:32;;;;;;;10.50;7.30;;;;;;;12.13;86.18;100857.11;124988;1297;98999;-79
2022/11/10 14:13:04;;;;;;;16.60;9.80;;;;;;;12.11;86.25;100865.58;124992;1297;98045;-79
2022/11/10 14:16:33;;;;;;;17.10;9.50;;;;;;;12.11;86.41;100868.42;124993;1289;98052;-79
2022/11/10 14:19:58;;;;;;;24.70;13.30;;;;;;;12.09;86.35;100871.80;125019;1299;98022;-79
2022/11/10 14:23:30;;;;;;;21.30;12.50;;;;;;;12.06;86.34;100878.66;125046;1306;99073;-80
2022/11/10 14:26:57;;;;;;;23.80;13.00;;;;;;;11.97;86.28;100887.27;125005;1297;98070;-80
2022/11/10 14:30:24;;;;;;;20.40;11.60;;;;;;;11.85;86.44;100895.06;124964;1297;98690;-80
2022/11/10 14:33:57;;;;;;;21.10;12.30;;;;;;;11.77;86.47;100900.64;125112;1305;99171;-81
2022/11/10 14:37:24;;;;;;;20.60;12.50;;;;;;;11.68;86.39;100907.70;125129;1305;99061;-80
2022/11/10 14:40:50;;;;;;;25.20;15.10;;;;;;;11.60;86.41;100911.48;124952;1306;98041;-80
2022/11/10 14:44:21;;;;;;;25.30;15.10;;;;;;;11.53;86.36;100917.67;124945;1296;131560;-80
2022/11/10 14:47:52;;;;;;;20.10;13.40;;;;;;;11.43;86.43;100922.87;124989;1302;98022;-80
2022/11/10 14:51:19;;;;;;;18.90;10.60;;;;;;;11.29;86.37;100932.55;124995;1289;98356;-80
2022/11/10 14:54:47;;;;;;;19.50;12.20;;;;;;;11.19;86.73;100939.50;124967;1302;98015;-81
2022/11/10 14:58:17;;;;;;;20.60;13.40;;;;;;;11.13;86.91;100937.73;124983;1296;99236;-80
2022/11/10 15:01:48;;;;;;;42.40;27.70;;;;;;;11.08;86.76;100942.85;124947;1296;98035;-78
2022/11/10 15:05:16;;;;;;;25.80;18.10;;;;;;;11.01;86.76;100945.82;124905;1304;101560;-79
2022/11/10 15:08:41;;;;;;;24.40;16.40;;;;;;;10.93;86.91;100945.09;124880;1297;98072;-79
2022/11/10 15:12:21;;;;;;;22.00;15.20;;;;;;;10.83;86.48;100950.80;124909;1304;98383;-79
2022/11/10 15:15:46;;;;;;;23.70;16.10;;;;;;;10.74;87.03;100965.15;124889;1317;98009;-78
2022/11/10 15:19:26;;;;;;;15.40;10.10;;;;;;;10.66;86.95;100971.17;125018;1292;98779;-79
2022/11/10 15:22:50;;;;;;;14.60;11.00;;;;;;;10.63;86.93;100979.06;125200;1297;99020;-80
2022/11/10 15:26:22;;;;;;;18.70;13.50;;;;;;;10.66;87.20;100985.45;125134;1296;98670;-79
2022/11/10 15:29:47;;;;;;;33.00;25.30;;;;;;;10.71;86.97;100994.20;124956;1304;98182;-79
2022/11/10 15:33:15;;;;;;;65.60;30.70;;;;;;;10.69;87.12;100999.01;124984;1298;99157;-79
2022/11/10 15:36:40;;;;;;;137.10;54.90;;;;;;;10.64;86.94;100995.40;125032;1306;98016;-79
2022/11/10 15:40:34;;;;;;;32.30;19.00;;;;;;;10.56;86.86;100994.83;125026;1306;98112;-79
2022/11/10 15:44:10;;;;;;;17.30;11.90;;;;;;;10.48;87.06;101004.91;124231;1312;99195;-79
2022/11/10 15:47:35;;;;;;;35.70;24.70;;;;;;;10.48;87.08;101008.64;124969;1296;98041;-79
2022/11/10 15:50:59;;;;;;;45.30;23.60;;;;;;;10.49;86.81;101011.23;125064;1306;98055;-79